Terminal Aerodrome Forecast
Issued by NWS Cheyenne, WY

Home | Current Version | Previous Version | Text Only | Print | Product List | Glossary On
Versions: 1 2 3 4 5 6 7 8 9 10 11 12 13 14 15 16 17 18 19 20 21 22 23 24 25 26 27 28 29 30
000
FTUS45 KCYS 291147
TAFCYS
TAF
KCYS 291147Z 2912/3012 20005KT P6SM SCT120
     FM292100 12010KT P6SM -SHRA VCTS SCT070CB BKN100
     FM300200 18007KT P6SM VCSH BKN100
     FM300600 27006KT P6SM SCT150=

USA.gov is the U.S. government's official web portal to all federal, state and local government web resources and services.